CYVK1: Verdigris River, Coyville, KS

Data processed at Wed May 22 2019 23:30


All information presented herein is the property of the government of the United States of America and may be revised or deleted at any time without prior notice.
Dissemination of this information without the expressed written consent of the Public Affairs Office, Tulsa District U.S. Army Corps of Engineers is strictly prohibited.
These data are gathered electronically and, as presented, have not undergone any form of quality control. These data are not guaranteed to be valid or correct.
Go to home page.
Go to station list.
Go to home page.

Upstream stations:

Downstream station:
Previous Day
Next Day
Current Day
    
SHEF ID:       CYVK1     VERDIGRIS R NR COYVILLE, KS
STATION TYPE:  
Regulating: Stage =    26.00, Flow =     7720

               PRECIP     STAGE  RIV-FLOW   VOLTAGE  BAT-LOAD
                   in        ft       cfs      volt      volt
              Ccp-Rev   Ccp-Rev   Ccp-Rev   Ccp-Rev   Ccp-Rev
(US/Central)
05/22 00:00      0.00     31.71     10600     12.81     12.73
05/22 01:00      0.00     32.33     10900     12.81     12.73
05/22 02:00      0.00     32.80     11200     12.73     12.65
05/22 03:00      0.00     33.47     11600     12.73     12.65
05/22 04:00      0.00     34.14     11900     12.73     12.65
05/22 05:00      0.00     34.53     12200     12.73     12.65
05/22 06:00      0.00     34.76     12300     12.65     12.65
05/22 07:00      0.00     34.90     12700     12.65     12.57
05/22 08:00      0.00     35.13     13700     12.65     12.65
05/22 09:00      0.00     35.26     14200     12.73     12.65
05/22 10:00      0.00     35.31     14400     12.81     12.73
05/22 11:00      0.00     35.36     14600     13.37     13.13
05/22 12:00      0.00     35.39     14700     13.76     13.60
05/22 13:00      0.00     35.38     14700     13.84     13.60
05/22 14:00      0.00     35.37     14700     13.92     13.53
05/22 15:00      0.00     35.40     14800     13.60     13.68
05/22 16:00      0.00     35.42     14900     13.29     13.37
05/22 17:00      0.00     35.29     14300     13.05     13.13
05/22 18:00      0.00     35.18     13900     13.37     13.13
05/22 19:00      0.00     35.03     13300     13.29     13.21
05/22 20:00      0.00     34.87     12600     12.97     12.97
05/22 21:00      0.00     34.75     12300     12.81     12.81
05/22 22:00      0.01     34.42     12100     12.81     12.73
05/22 23:00      ----      ----      ----      ----      ----